.
WxDataArchive / Data Records for 2009-06-23
2009-06-22 June 2009 2009-06-24

Data Records for Tuesday, 23 June 2009

Time	Temp	Chill	HIndex	Humid	Dewpt	 Wind 	HiWind	WindDir	Rain 	Barom 
-----	----	-----	------	-----	-----	------	------	-------	-----	----- 
00:00	72.1	72.1	72.1	74	63.3	0	1	112	0.00	29.858 
00:05	72.1	72.1	72.1	75	63.7	0	1	112	0.00	29.858 
00:10	72.1	72.1	72.1	75	63.7	0	1	112	0.00	29.858 
00:15	72.1	72.1	72.1	76	64.1	0	1	112	0.00	29.856 
00:20	72.0	72.0	72.0	76	64.0	0	0	---	0.00	29.856 
00:25	71.8	71.8	71.8	77	64.2	0	0	---	0.00	29.856 
00:30	71.5	71.5	71.5	77	63.9	0	0	---	0.00	29.861 
00:35	71.3	71.3	71.3	77	63.7	0	0	---	0.00	29.861 
00:40	70.9	70.9	70.9	78	63.7	0	0	---	0.00	29.861 
00:45	70.8	70.8	70.8	79	64.0	0	0	---	0.00	29.865 
00:50	70.4	70.4	70.4	80	63.9	0	0	---	0.00	29.865 
00:55	70.3	70.3	70.3	80	63.8	0	0	---	0.00	29.865 
01:00	69.9	69.9	69.9	81	63.8	0	0	---	0.00	29.865 
01:05	69.8	69.8	69.8	81	63.7	0	0	---	0.00	29.865 
01:10	69.6	69.6	69.6	82	63.9	0	0	---	0.00	29.865 
01:15	69.4	69.4	69.4	82	63.7	0	0	---	0.00	29.866 
01:20	69.3	69.3	69.3	82	63.6	0	0	---	0.00	29.866 
01:25	69.1	69.1	69.1	83	63.7	0	0	---	0.00	29.866 
01:30	68.9	68.9	68.9	84	63.9	0	0	---	0.00	29.865 
01:35	68.8	68.8	68.8	84	63.8	0	0	---	0.00	29.865 
01:40	68.6	68.6	68.6	84	63.6	0	0	---	0.00	29.865 
01:45	68.4	68.4	68.4	84	63.4	0	0	---	0.00	29.863 
01:50	68.3	68.3	68.3	85	63.6	0	0	---	0.00	29.863 
01:55	68.1	68.1	68.1	85	63.4	0	0	---	0.00	29.863 
02:00	67.9	67.9	67.9	85	63.2	0	0	---	0.00	29.860 
02:05	67.9	67.9	67.9	86	63.5	0	0	---	0.00	29.860 
02:10	67.8	67.8	67.8	86	63.5	0	0	---	0.00	29.860 
02:15	67.6	67.6	67.6	87	63.6	0	0	---	0.00	29.863 
02:20	67.6	67.6	67.6	87	63.6	0	0	---	0.00	29.863 
02:25	67.4	67.4	67.4	87	63.4	0	0	---	0.00	29.863 
02:30	67.3	67.3	67.3	87	63.3	0	0	---	0.00	29.867 
02:35	67.1	67.1	67.1	88	63.4	0	0	---	0.00	29.867 
02:40	66.9	66.9	66.9	88	63.2	0	0	---	0.00	29.867 
02:45	66.8	66.8	66.8	88	63.1	0	0	---	0.00	29.867 
02:50	66.6	66.6	66.6	89	63.3	0	0	---	0.00	29.867 
02:55	66.4	66.4	66.4	89	63.1	0	0	---	0.00	29.867 
03:00	66.3	66.3	66.3	89	63.0	0	0	---	0.00	29.868 
03:05	66.1	66.1	66.1	90	63.1	0	0	---	0.00	29.868 
03:10	66.0	66.0	66.0	90	63.0	0	0	---	0.00	29.868 
03:15	65.8	65.8	65.8	90	62.8	0	0	---	0.00	29.868 
03:20	65.6	65.6	65.6	91	62.9	0	0	---	0.00	29.868 
03:25	65.6	65.6	65.6	91	62.9	0	0	---	0.00	29.868 
03:30	65.5	65.5	65.5	91	62.8	0	0	---	0.00	29.870 
03:35	65.3	65.3	65.3	91	62.6	0	0	---	0.00	29.870 
03:40	65.2	65.2	65.2	92	62.8	0	0	---	0.00	29.870 
03:45	65.2	65.2	65.2	92	62.8	0	0	---	0.00	29.873 
03:50	65.0	65.0	65.0	92	62.6	0	0	---	0.00	29.873 
03:55	64.8	64.8	64.8	92	62.4	0	0	---	0.00	29.873 
04:00	64.8	64.8	64.8	92	62.4	0	0	---	0.00	29.871 
04:05	64.8	64.8	64.8	92	62.4	0	0	---	0.00	29.871 
04:10	64.8	64.8	64.8	92	62.4	0	0	---	0.00	29.871 
04:15	64.7	64.7	64.7	93	62.6	0	0	---	0.00	29.872 
04:20	64.7	64.7	64.7	93	62.6	0	0	---	0.00	29.872 
04:25	64.5	64.5	64.5	93	62.4	0	0	---	0.00	29.872 
04:30	64.5	64.5	64.5	93	62.4	0	0	---	0.00	29.879 
04:35	64.3	64.3	64.3	93	62.2	0	0	---	0.00	29.879 
04:40	64.2	64.2	64.2	93	62.1	0	0	---	0.00	29.879 
04:45	64.2	64.2	64.2	93	62.1	0	0	---	0.00	29.879 
04:50	64.0	64.0	64.0	93	61.9	0	0	---	0.00	29.879 
04:55	63.9	63.9	63.9	93	61.8	0	0	---	0.00	29.879 
05:00	63.7	63.7	63.7	93	61.6	0	0	---	0.00	29.880 
05:05	63.7	63.7	63.7	94	61.9	0	0	---	0.00	29.880 
05:10	63.7	63.7	63.7	94	61.9	0	0	---	0.00	29.880 
05:15	63.5	63.5	63.5	94	61.7	0	0	---	0.00	29.878 
05:20	63.5	63.5	63.5	94	61.7	0	0	---	0.00	29.878 
05:25	63.4	63.4	63.4	94	61.6	0	0	---	0.00	29.878 
05:30	63.2	63.2	63.2	94	61.4	0	0	---	0.00	29.883 
05:35	63.2	63.2	63.2	94	61.4	0	0	---	0.00	29.883 
05:40	63.1	63.1	63.1	94	61.3	0	0	---	0.00	29.883 
05:45	63.1	63.1	63.1	94	61.3	0	0	---	0.00	29.884 
05:50	63.1	63.1	63.1	94	61.3	0	0	---	0.00	29.884 
05:55	62.9	62.9	62.9	94	61.1	0	0	---	0.00	29.884 
06:00	62.9	62.9	62.9	94	61.1	0	0	---	0.00	29.885 
06:05	62.7	62.7	62.7	94	60.9	0	0	---	0.00	29.885 
06:10	62.7	62.7	62.7	94	60.9	0	0	---	0.00	29.885 
06:15	62.7	62.7	62.7	95	61.2	0	0	---	0.00	29.887 
06:20	62.7	62.7	62.7	95	61.2	0	0	---	0.00	29.887 
06:25	62.7	62.7	62.7	95	61.2	0	0	---	0.00	29.887 
06:30	62.7	62.7	62.7	95	61.2	0	0	---	0.00	29.891 
06:35	62.7	62.7	62.7	95	61.2	0	0	---	0.00	29.891 
06:40	62.7	62.7	62.7	95	61.2	0	0	---	0.00	29.891 
06:45	62.9	62.9	62.9	95	61.4	0	0	---	0.00	29.900 
06:50	62.9	62.9	62.9	95	61.4	0	0	---	0.00	29.900 
06:55	63.1	63.1	63.1	95	61.6	0	0	---	0.00	29.900 
07:00	63.4	63.4	63.4	95	61.9	0	0	---	0.00	29.901 
07:05	63.7	63.7	63.7	96	62.5	0	0	---	0.00	29.901 
07:10	64.2	64.2	64.2	96	63.0	0	0	---	0.00	29.901 
07:15	64.5	64.5	64.5	96	63.3	0	0	---	0.00	29.902 
07:20	64.8	64.8	64.8	96	63.6	0	0	---	0.00	29.902 
07:25	65.3	65.3	65.3	96	64.1	0	0	---	0.00	29.902 
07:30	66.0	66.0	66.0	96	64.8	0	0	---	0.00	29.902 
07:35	66.4	66.4	66.4	96	65.2	1	3	112	0.00	29.902 
07:40	67.3	67.3	67.3	93	65.2	0	3	112	0.00	29.902 
07:45	67.9	67.9	67.9	90	64.9	0	2	112	0.00	29.899 
07:50	68.8	68.8	68.8	88	65.1	1	4	112	0.00	29.899 
07:55	69.4	69.4	69.4	85	64.7	1	4	112	0.00	29.899 
08:00	70.3	70.3	70.3	82	64.5	1	2	112	0.00	29.901 
08:05	71.1	71.1	71.1	80	64.6	1	3	112	0.00	29.901 
08:10	71.8	71.8	71.8	78	64.6	1	3	112	0.00	29.901 
08:15	72.5	72.5	72.5	77	64.9	0	2	112	0.00	29.909 
08:20	73.3	73.3	73.3	75	64.9	0	1	112	0.00	29.909 
08:25	74.0	74.0	74.0	72	64.4	1	3	112	0.00	29.909 
08:30	74.4	74.4	74.4	71	64.4	0	2	112	0.00	29.912 
08:35	75.1	75.1	76.8	70	64.6	0	3	112	0.00	29.912 
08:40	75.4	75.4	77.2	68	64.1	0	2	112	0.00	29.912 
08:45	75.6	75.6	77.4	67	63.9	1	3	112	0.00	29.913 
08:50	75.8	75.8	77.6	67	64.0	1	3	112	0.00	29.913 
08:55	75.8	75.8	77.5	69	64.9	1	3	112	0.00	29.913 
09:00	76.0	76.0	77.8	67	64.2	1	4	112	0.00	29.914 
09:05	76.5	76.5	78.3	67	64.7	1	3	112	0.00	29.914 
09:10	76.7	76.7	78.5	68	65.3	1	2	112	0.00	29.914 
09:15	77.2	77.2	79.0	65	64.5	0	6	112	0.00	29.921 
09:20	77.6	77.6	79.4	63	64.0	1	3	90	0.00	29.921 
09:25	78.1	78.1	79.8	61	63.5	0	1	90	0.00	29.921 
09:30	78.3	78.3	79.9	59	62.8	1	3	90	0.00	29.924 
09:35	78.5	78.5	80.2	61	63.9	1	3	90	0.00	29.924 
09:40	78.5	78.5	80.1	59	63.0	1	3	90	0.00	29.924 
09:45	78.6	78.6	80.3	60	63.5	1	4	90	0.00	29.927 
09:50	79.0	79.0	80.5	58	62.9	1	3	90	0.00	29.927 
09:55	79.2	79.2	80.7	57	62.6	1	4	90	0.00	29.927 
10:00	79.2	79.2	80.7	58	63.1	1	5	90	0.00	29.928 
10:05	79.8	79.8	81.3	57	63.2	1	3	135	0.00	29.928 
10:10	80.1	80.1	81.5	56	63.0	1	3	135	0.00	29.928 
10:15	80.1	80.1	81.6	57	63.5	1	4	90	0.00	29.928 
10:20	80.3	80.3	81.6	55	62.6	1	2	90	0.00	29.928 
10:25	80.9	80.9	82.3	55	63.2	0	2	90	0.00	29.928 
10:30	81.2	81.2	82.5	54	62.9	1	4	90	0.00	29.928 
10:35	81.4	81.4	82.5	53	62.6	1	4	90	0.00	29.928 
10:40	81.6	81.6	82.9	54	63.3	1	4	112	0.00	29.928 
10:45	81.8	81.8	83.2	54	63.5	1	4	112	0.00	29.927 
10:50	82.0	82.0	83.4	54	63.7	1	5	112	0.00	29.927 
10:55	82.0	82.0	83.1	52	62.6	1	5	90	0.00	29.927 
11:00	82.4	82.4	83.5	52	63.0	1	3	112	0.00	29.927 
11:05	82.4	82.4	83.9	54	64.1	1	3	112	0.00	29.927 
11:10	82.6	82.6	83.6	51	62.6	1	2	112	0.00	29.927 
11:15	83.2	83.2	84.1	50	62.6	1	3	112	0.00	29.930 
11:20	83.6	83.6	84.6	50	63.0	1	2	112	0.00	29.930 
11:25	84.0	84.0	85.8	53	65.0	0	1	112	0.00	29.930 
11:30	84.0	84.0	84.7	48	62.2	1	3	112	0.00	29.929 
11:35	84.0	84.0	84.9	49	62.8	0	1	112	0.00	29.929 
11:40	83.8	83.8	85.5	53	64.8	0	1	112	0.00	29.929 
11:45	84.0	84.0	85.8	53	65.0	0	1	112	0.00	29.928 
11:50	84.1	84.1	85.3	50	63.4	0	2	112	0.00	29.928 
11:55	84.3	84.3	85.7	51	64.2	1	3	112	0.00	29.928 
12:00	84.1	84.1	85.3	50	63.4	2	4	112	0.00	29.926 
12:05	84.1	84.1	84.8	48	62.3	1	5	68	0.00	29.926 
12:10	84.0	84.0	85.1	50	63.3	1	4	90	0.00	29.926 
12:15	84.0	84.0	84.9	49	62.8	1	2	90	0.00	29.927 
12:20	84.3	84.3	86.5	54	65.8	0	2	90	0.00	29.927 
12:25	84.3	84.3	84.9	47	61.8	1	5	90	0.00	29.927 
12:30	84.3	84.3	85.7	51	64.2	1	5	90	0.00	29.924 
12:35	84.1	84.1	85.3	50	63.4	1	4	90	0.00	29.924 
12:40	84.0	84.0	84.9	49	62.8	0	2	90	0.00	29.924 
12:45	84.0	84.0	85.8	53	65.0	0	1	90	0.00	29.926 
12:50	84.5	84.5	86.5	53	65.5	0	2	90	0.00	29.926 
12:55	84.7	84.7	85.8	49	63.4	1	3	90	0.00	29.926 
13:00	85.1	85.1	85.4	45	61.3	1	5	90	0.00	29.921 
13:05	85.3	85.3	85.7	45	61.5	0	3	90	0.00	29.921 
13:10	85.3	85.3	85.7	45	61.5	1	4	90	0.00	29.921 
13:15	85.3	85.3	85.9	46	62.1	1	5	90	0.00	29.922 
13:20	85.1	85.1	85.4	45	61.3	1	3	112	0.00	29.922 
13:25	85.1	85.1	85.7	46	62.0	1	4	112	0.00	29.922 
13:30	85.5	85.5	86.6	48	63.5	1	3	112	0.00	29.917 
13:35	85.7	85.7	86.2	45	61.9	1	3	112	0.00	29.917 
13:40	85.7	85.7	86.7	47	63.1	2	6	112	0.00	29.917 
13:45	85.7	85.7	86.7	47	63.1	2	4	90	0.00	29.916 
13:50	85.7	85.7	86.0	44	61.2	2	4	90	0.00	29.916 
13:55	85.5	85.5	86.6	48	63.5	1	5	90	0.00	29.916 
14:00	85.9	85.9	86.0	43	60.8	0	3	90	0.00	29.916 
14:05	86.3	86.3	87.0	45	62.4	1	2	90	0.00	29.916 
14:10	86.7	86.7	89.3	51	66.4	1	3	112	0.00	29.916 
14:15	86.5	86.5	87.2	45	62.6	1	4	90	0.00	29.917 
14:20	86.3	86.3	87.5	47	63.7	2	5	90	0.00	29.917 
14:25	86.7	86.7	87.8	46	63.4	0	2	112	0.00	29.917 
14:30	87.0	87.0	89.4	50	66.1	0	2	112	0.00	29.918 
14:35	87.0	87.0	87.6	44	62.4	0	1	112	0.00	29.918 
14:40	86.7	86.7	87.2	44	62.1	0	3	112	0.00	29.918 
14:45	87.0	87.0	87.1	42	61.1	1	3	112	0.00	29.915 
14:50	87.0	87.0	88.2	46	63.7	1	3	112	0.00	29.915 
14:55	87.2	87.2	87.4	42	61.3	1	3	112	0.00	29.915 
15:00	87.4	87.4	87.6	42	61.5	0	2	112	0.00	29.912 
15:05	87.2	87.2	88.2	45	63.2	0	2	270	0.00	29.912 
15:10	87.6	87.6	89.7	48	65.4	1	4	112	0.00	29.912 
15:15	88.0	88.0	88.7	43	62.7	0	2	112	0.00	29.914 
15:20	87.6	87.6	88.5	44	63.0	1	3	112	0.00	29.914 
15:25	87.2	87.2	88.2	45	63.2	1	3	112	0.00	29.914 
15:30	87.2	87.2	88.5	46	63.9	0	2	112	0.00	29.913 
15:35	87.2	87.2	89.4	49	65.7	0	1	112	0.00	29.913 
15:40	87.4	87.4	87.9	43	62.1	0	2	112	0.00	29.913 
15:45	87.8	87.8	88.5	43	62.5	0	3	112	0.00	29.911 
15:50	88.0	88.0	88.2	41	61.3	0	2	112	0.00	29.911 
15:55	88.2	88.2	88.2	40	60.8	1	2	112	0.00	29.911 
16:00	88.2	88.2	88.7	42	62.2	0	1	112	0.00	29.900 
16:05	88.6	88.6	89.3	42	62.5	0	2	112	0.00	29.900 
16:10	88.8	88.8	89.9	43	63.4	0	1	112	0.00	29.900 
16:15	89.0	89.0	89.6	41	62.2	1	3	112	0.00	29.898 
16:20	88.6	88.6	88.4	39	60.4	2	5	90	0.00	29.898 
16:25	88.2	88.2	88.7	42	62.2	1	4	135	0.00	29.898 
16:30	88.2	88.2	88.4	41	61.5	1	3	135	0.00	29.896 
16:35	88.2	88.2	88.7	42	62.2	1	5	90	0.00	29.896 
16:40	88.0	88.0	88.7	43	62.7	0	2	90	0.00	29.896 
16:45	88.4	88.4	88.4	40	61.0	0	2	90	0.00	29.895 
16:50	88.6	88.6	88.7	40	61.1	0	2	90	0.00	29.895 
16:55	88.6	88.6	88.7	40	61.1	0	4	90	0.00	29.895 
17:00	88.6	88.6	89.9	44	63.9	1	3	90	0.00	29.887 
17:05	88.4	88.4	88.7	41	61.7	0	1	90	0.00	29.887 
17:10	88.4	88.4	88.4	40	61.0	0	2	90	0.00	29.887 
17:15	88.4	88.4	89.0	42	62.3	1	3	90	0.00	29.885 
17:20	88.2	88.2	89.0	43	62.8	0	3	90	0.00	29.885 
17:25	88.2	88.2	88.2	40	60.8	0	1	90	0.00	29.885 
17:30	88.6	88.6	88.7	40	61.1	0	3	90	0.00	29.885 
17:35	88.2	88.2	88.2	40	60.8	2	5	90	0.00	29.885 
17:40	88.0	88.0	89.0	44	63.3	1	3	90	0.00	29.885 
17:45	88.0	88.0	87.9	40	60.6	1	5	112	0.00	29.889 
17:50	87.8	87.8	87.9	41	61.1	1	3	112	0.00	29.889 
17:55	87.8	87.8	88.5	43	62.5	0	1	112	0.00	29.889 
18:00	87.8	87.8	88.2	42	61.8	0	1	112	0.00	29.890 
18:05	87.6	87.6	88.5	44	63.0	0	2	112	0.00	29.890 
18:10	87.4	87.4	87.4	41	60.8	0	4	112	0.00	29.890 
18:15	87.4	87.4	87.6	42	61.5	0	1	112	0.00	29.892 
18:20	87.2	87.2	87.4	42	61.3	0	1	112	0.00	29.892 
18:25	87.2	87.2	87.6	43	61.9	0	2	112	0.00	29.892 
18:30	87.0	87.0	87.4	43	61.8	0	3	112	0.00	29.889 
18:35	86.7	86.7	87.8	46	63.4	0	2	112	0.00	29.889 
18:40	86.3	86.3	87.0	45	62.4	0	2	112	0.00	29.889 
18:45	86.1	86.1	86.7	45	62.2	0	1	112	0.00	29.887 
18:50	85.9	85.9	86.7	46	62.7	0	1	135	0.00	29.887 
18:55	85.7	85.7	86.4	46	62.5	0	1	135	0.00	29.887 
19:00	85.5	85.5	86.2	46	62.3	0	0	---	0.00	29.887 
19:05	85.3	85.3	86.1	47	62.8	0	0	---	0.00	29.887 
19:10	85.1	85.1	86.1	48	63.2	0	0	---	0.00	29.887 
19:15	85.1	85.1	85.9	47	62.6	0	1	135	0.00	29.881 
19:20	85.3	85.3	85.9	46	62.1	0	1	135	0.00	29.881 
19:25	85.5	85.5	86.4	47	62.9	0	1	135	0.00	29.881 
19:30	85.5	85.5	86.2	46	62.3	0	1	135	0.00	29.882 
19:35	85.5	85.5	86.4	47	62.9	0	1	135	0.00	29.882 
19:40	85.5	85.5	86.4	47	62.9	0	1	135	0.00	29.882 
19:45	85.3	85.3	86.1	47	62.8	0	2	135	0.00	29.880 
19:50	84.9	84.9	85.8	48	63.0	0	0	---	0.00	29.880 
19:55	84.7	84.7	85.6	48	62.8	0	1	135	0.00	29.880 
20:00	84.5	84.5	85.6	49	63.2	0	0	---	0.00	29.881 
20:05	84.3	84.3	85.3	49	63.0	0	0	---	0.00	29.881 
20:10	84.3	84.3	85.3	49	63.0	0	0	---	0.00	29.881 
20:15	84.1	84.1	85.3	50	63.4	0	0	---	0.00	29.875 
20:20	84.0	84.0	85.1	50	63.3	0	0	---	0.00	29.875 
20:25	83.8	83.8	84.9	50	63.1	0	0	---	0.00	29.875 
20:30	83.6	83.6	84.6	50	63.0	0	0	---	0.00	29.876 
20:35	83.4	83.4	84.4	50	62.8	0	0	---	0.00	29.876 
20:40	83.0	83.0	83.9	50	62.4	0	0	---	0.00	29.876 
20:45	82.8	82.8	83.7	50	62.2	0	0	---	0.00	29.881 
20:50	82.4	82.4	83.4	51	62.4	0	0	---	0.00	29.881 
20:55	82.2	82.2	83.1	51	62.2	0	0	---	0.00	29.881 
21:00	81.8	81.8	83.0	53	63.0	0	0	---	0.00	29.884 
21:05	81.4	81.4	82.7	54	63.1	0	0	---	0.00	29.884 
21:10	81.1	81.1	82.5	55	63.4	0	0	---	0.00	29.884 
21:15	80.9	80.9	82.4	56	63.7	0	0	---	0.00	29.884 
21:20	80.3	80.3	81.9	58	64.2	0	0	---	0.00	29.884 
21:25	79.9	79.9	81.6	59	64.3	0	0	---	0.00	29.884 
21:30	79.6	79.6	81.3	60	64.5	0	0	---	0.00	29.879 
21:35	79.2	79.2	81.0	61	64.6	0	0	---	0.00	29.879 
21:40	78.8	78.8	80.7	63	65.1	0	0	---	0.00	29.879 
21:45	78.6	78.6	80.4	63	64.9	0	0	---	0.00	29.882 
21:50	78.3	78.3	80.2	64	65.1	0	0	---	0.00	29.882 
21:55	77.9	77.9	79.7	65	65.2	0	0	---	0.00	29.882 
22:00	77.4	77.4	79.2	65	64.7	0	0	---	0.00	29.883 
22:05	77.2	77.2	79.0	66	64.9	0	0	---	0.00	29.883 
22:10	76.8	76.8	78.6	67	65.0	0	0	---	0.00	29.883 
22:15	76.7	76.7	78.5	67	64.9	0	0	---	0.00	29.889 
22:20	76.3	76.3	78.0	68	64.9	0	0	---	0.00	29.889 
22:25	76.0	76.0	77.7	69	65.1	0	0	---	0.00	29.889 
22:30	75.8	75.8	77.5	69	64.9	0	0	---	0.00	29.891 
22:35	75.4	75.4	77.0	71	65.3	0	0	---	0.00	29.891 
22:40	75.3	75.3	76.8	72	65.6	0	0	---	0.00	29.891 
22:45	75.1	75.1	76.6	72	65.4	0	0	---	0.00	29.894 
22:50	74.9	74.9	74.9	73	65.6	0	0	---	0.00	29.894 
22:55	74.7	74.7	74.7	74	65.8	0	0	---	0.00	29.894 
23:00	74.4	74.4	74.4	74	65.6	0	0	---	0.00	29.898 
23:05	74.2	74.2	74.2	74	65.4	0	0	---	0.00	29.898 
23:10	74.0	74.0	74.0	74	65.2	0	0	---	0.00	29.898 
23:15	73.9	73.9	73.9	75	65.5	0	0	---	0.00	29.892 
23:20	73.5	73.5	73.5	75	65.1	0	0	---	0.00	29.892 
23:25	73.5	73.5	73.5	76	65.5	0	0	---	0.00	29.892 
23:30	73.3	73.3	73.3	77	65.6	0	0	---	0.00	29.897 
23:35	73.2	73.2	73.2	77	65.5	0	0	---	0.00	29.897 
23:40	73.0	73.0	73.0	77	65.3	0	0	---	0.00	29.897 
23:45	73.0	73.0	73.0	78	65.7	0	0	---	0.00	29.902 
23:50	73.0	73.0	73.0	78	65.7	0	0	---	0.00	29.902 
23:55	72.7	72.7	72.7	77	65.1	0	0	---	0.00	29.902 

CoCoRaHS
IN-AL-39
A2 Web Hosting
Creative Commons License
GoDaddy
search engine by freefind advanced

loaded 2018-11-15 18:18:19 • last modified 2010-11-18 10:43:29
Privacy PolicyDisclaimer
• wx.awcolley.com is powered by PmWiki v.2002016 •
• all content (unless otherwise noted) © 2018 A W Colley